Latest Weather Observations for Bendigo

IDV60801

Issued at 10:42 am EDT Wednesday 16 January 2019 (issued every 10 minutes, with the page automatically refreshed every 10 minutes)

About weather observations | Map of weather stations | Latest weather observations for VIC | Other Formats
Station Details ID: 250031 Name: VICTORIAN PORTABLE K Lat: -36.65 Lon: 144.42 Height: 160.0 m
Data from the previous 72 hours. | See also: Recent months for locations in Victoria
Date/Time
EDT
Temp
°C
App
Temp
°C
Dew
Point
°C
Rel
Hum
%
Delta-T
°C
Wind Press
QNH
hPa
Press
MSL
hPa
Rain since
9am
mm
Dir  Spd
km/h
Gust
km/h
Spd
kts
Gust
kts
16/10:30am 34.7 32.5 3.5 14 16.4 NE 4 7 2 4 - - 0.0
16/10:20am 34.7 32.5 3.3 14 16.4 N 4 7 2 4 - - 0.0
16/10:10am 34.2 31.6 3.2 14 16.2 NNE 6 11 3 6 - - 0.0
16/10:00am 34.8 32.5 2.8 13 16.6 NE 4 9 2 5 - - 0.0
16/09:50am 33.5 31.8 4.1 16 15.5 N 2 7 1 4 - - 0.0
16/09:40am 33.4 31.4 4.5 16 15.3 E 4 7 2 4 - - 0.0
16/09:30am 32.6 30.7 4.8 17 14.7 E 4 9 2 5 - - 0.0
16/09:20am 31.9 29.5 4.4 17 14.4 E 6 9 3 5 - - 0.0
16/09:10am 31.7 29.8 4.7 18 14.2 E 4 9 2 5 - - 0.0
16/09:00am 30.5 28.2 4.7 19 13.5 ESE 6 9 3 5 - - 0.0
16/08:50am 30.5 28.5 4.5 19 13.5 ESE 4 9 2 5 - - 0.0
16/08:40am 30.2 28.2 4.6 19 13.3 E 4 6 2 3 - - 0.0
16/08:30am 29.4 27.9 5.0 21 12.7 E 2 7 1 4 - - 0.0
16/08:20am 28.6 27.1 5.2 22 12.2 SE 2 7 1 4 - - 0.0
16/08:10am 27.8 26.0 5.4 24 11.7 SE 4 6 2 3 - - 0.0
16/08:00am 26.7 25.3 5.6 26 11.0 E 2 4 1 2 - - 0.0
16/07:50am 23.8 23.0 6.6 33 8.9 CALM 0 6 0 3 - - 0.0
16/07:40am 22.6 21.8 8.1 39 7.7 SSW 2 4 1 2 - - 0.0
16/07:30am 21.6 21.2 8.3 42 7.0 CALM 0 4 0 2 - - 0.0
16/07:20am 21.1 20.5 7.2 40 7.2 CALM 0 2 0 1 - - 0.0
16/07:10am 20.7 19.9 6.6 40 7.2 CALM 0 2 0 1 - - 0.0
16/07:00am 20.0 19.3 7.1 43 6.6 CALM 0 2 0 1 - - 0.0
16/06:50am 19.5 18.5 7.2 45 6.3 SSW 2 4 1 2 - - 0.0
16/06:40am 19.4 18.4 7.3 45 6.2 SSW 2 4 1 2 - - 0.0
16/06:30am 19.5 18.8 7.0 44 6.4 CALM 0 2 0 1 - - 0.0
16/06:20am 19.4 18.8 7.2 45 6.2 CALM 0 4 0 2 - - 0.0
16/06:10am 19.5 18.8 7.0 44 6.4 CALM 0 2 0 1 - - 0.0
16/06:00am 19.3 18.6 7.1 45 6.2 CALM 0 0 0 0 - - 0.0
16/05:50am 19.4 18.8 7.3 45 6.2 CALM 0 2 0 1 - - 0.0
16/05:40am 20.0 18.9 6.9 42 6.7 S 2 4 1 2 - - 0.0
16/05:30am 20.2 19.1 6.9 42 6.8 S 2 4 1 2 - - 0.0
16/05:20am 19.8 19.1 7.1 43 6.5 CALM 0 2 0 1 - - 0.0
16/05:10am 20.0 18.9 6.8 42 6.7 S 2 2 1 1 - - 0.0
16/05:00am 20.1 19.0 6.9 42 6.7 S 2 4 1 2 - - 0.0
16/04:50am 19.9 18.4 7.0 43 6.6 S 4 6 2 3 - - 0.0
16/04:40am 19.8 18.4 7.3 44 6.4 S 4 7 2 4 - - 0.0
16/04:30am 20.2 18.8 7.3 43 6.6 S 4 6 2 3 - - 0.0
16/04:20am 20.2 19.1 7.1 42 6.7 SSW 2 4 1 2 - - 0.0
16/04:10am 20.8 19.7 6.8 40 7.2 S 2 4 1 2 - - 0.0
16/04:00am 21.6 20.0 6.2 36 7.8 S 4 6 2 3 - - 0.0
16/03:50am 20.8 19.3 6.8 40 7.2 S 4 6 2 3 - - 0.0
16/03:40am 20.5 18.8 7.6 43 6.7 S 6 9 3 5 - - 0.0
16/03:30am 20.7 19.5 8.1 44 6.6 S 4 7 2 4 - - 0.0
16/03:20am 20.8 20.0 8.3 44 6.6 S 2 4 1 2 - - 0.0
16/03:10am 21.3 20.4 7.8 41 7.1 SW 2 6 1 3 - - 0.0
16/03:00am 20.9 20.5 8.2 44 6.7 CALM 0 2 0 1 - - 0.0
16/02:50am 21.0 20.7 8.5 44 6.6 CALM 0 2 0 1 - - 0.0
16/02:40am 21.4 20.8 7.6 41 7.2 CALM 0 2 0 1 - - 0.0
16/02:30am 22.0 21.0 7.4 39 7.6 S 2 4 1 2 - - 0.0
16/02:20am 22.1 21.1 7.2 38 7.7 S 2 4 1 2 - - 0.0
16/02:10am 21.8 20.5 7.6 40 7.4 S 4 9 2 5 - - 0.0
16/02:00am 22.8 21.8 7.2 36 8.1 SSW 2 4 1 2 - - 0.0
16/01:50am 23.1 22.1 7.3 36 8.3 S 2 4 1 2 - - 0.0
16/01:40am 23.7 22.6 6.9 34 8.8 S 2 4 1 2 - - 0.0
16/01:30am 23.6 22.6 7.2 35 8.6 S 2 2 1 1 - - 0.0
16/01:20am 23.8 22.7 7.0 34 8.8 SSE 2 4 1 2 - - 0.0
16/01:10am 23.8 22.7 6.9 33 8.8 S 2 4 1 2 - - 0.0
16/01:00am 24.0 22.9 7.1 33 8.9 SSE 2 6 1 3 - - 0.0
16/12:50am 23.9 23.3 7.3 34 8.7 CALM 0 2 0 1 - - 0.0
16/12:40am 24.2 23.7 7.8 35 8.7 CALM 0 2 0 1 - - 0.0
16/12:30am 24.3 23.5 8.2 35 8.6 NE 2 2 1 1 - - 0.0
16/12:20am 24.6 23.6 7.5 33 9.1 NNE 2 2 1 1 - - 0.0
16/12:10am 25.3 24.4 7.8 32 9.4 ENE 2 4 1 2 - - 0.0
16/12:00am 24.9 24.0 7.6 33 9.2 N 2 4 1 2 - - 0.0
 
Date/Time
EDT
Temp
°C
App
Temp
°C
Dew
Point
°C
Rel
Hum
%
Delta-T
°C
Wind Press
QNH
hPa
Press
MSL
hPa
Rain since
9am
mm
Dir  Spd
km/h
Gust
km/h
Spd
kts
Gust
kts
15/11:50pm 25.9 25.0 7.8 31 9.7 W 2 4 1 2 - - 0.0
15/11:40pm 26.2 25.2 7.4 30 10.0 WSW 2 2 1 1 - - 0.0
15/11:30pm 26.5 25.5 7.4 29 10.2 SW 2 4 1 2 - - 0.0
15/11:20pm 26.5 25.5 7.5 30 10.2 SSW 2 4 1 2 - - 0.0
15/11:10pm 26.9 25.9 7.3 29 10.5 SSE 2 7 1 4 - - 0.0
15/11:00pm 28.0 26.5 7.0 26 11.3 SE 4 11 2 6 - - 0.0
15/10:50pm 27.4 26.4 7.4 28 10.8 SE 2 7 1 4 - - 0.0
15/10:40pm 28.5 27.6 7.6 26 11.3 SSE 2 7 1 4 - - 0.0
15/10:30pm 29.6 28.4 8.0 26 11.9 SE 4 7 2 4 - - 0.0
15/10:20pm 29.6 28.8 8.2 26 11.8 E 2 4 1 2 - - 0.0
15/10:10pm 29.8 29.1 8.7 26 11.7 E 2 7 1 4 - - 0.0
15/10:00pm 30.6 29.9 8.6 25 12.3 E 2 6 1 3 - - 0.0
15/09:50pm 30.9 29.9 9.0 25 12.3 E 4 7 2 4 - - 0.0
15/09:40pm 31.8 30.7 8.5 23 13.1 E 4 9 2 5 - - 0.0
15/09:30pm 31.6 30.7 7.9 23 13.1 E 2 6 1 3 - - 0.0
15/09:20pm 32.7 31.3 7.3 20 14.0 E 4 9 2 5 - - 0.0
15/09:10pm 33.4 31.6 7.3 20 14.5 ESE 6 11 3 6 - - 0.0
15/09:00pm 33.7 32.4 7.5 19 14.6 ESE 4 9 2 5 - - 0.0
15/08:40pm 34.7 33.1 8.2 19 15.0 E 6 13 3 7 - - 0.0
15/08:30pm 35.3 33.5 8.0 18 15.4 ESE 7 17 4 9 - - 0.0
15/08:20pm 35.8 33.3 8.1 18 15.7 ESE 11 28 6 15 - - 0.0
15/08:10pm 36.2 33.8 6.8 16 16.4 ESE 9 26 5 14 - - 0.0
15/08:00pm 36.6 33.6 6.0 15 16.9 ESE 11 24 6 13 - - 0.0
15/07:50pm 37.0 34.0 5.9 14 17.2 ESE 11 28 6 15 - - 0.0
15/07:40pm 37.3 33.9 5.7 14 17.4 ESE 13 28 7 15 - - 0.0
15/07:30pm 38.0 34.0 4.9 13 18.1 SE 15 30 8 16 - - 0.0
15/07:20pm 39.5 34.8 -1.8 7 20.5 SE 13 24 7 13 - - 0.0
15/07:10pm 40.4 37.0 -0.8 7 20.9 SSE 7 19 4 10 - - 0.0
15/07:00pm 41.5 38.7 -0.4 7 21.5 SSE 4 11 2 6 - - 0.0
15/06:50pm 40.5 37.3 -0.7 7 21.0 S 6 17 3 9 - - 0.0
15/06:40pm 41.8 38.4 -0.6 7 21.8 S 7 17 4 9 - - 0.0
15/06:30pm 42.0 38.6 -0.8 7 21.9 S 7 24 4 13 - - 0.0
15/06:20pm 41.4 38.1 -0.2 7 21.4 SSW 7 17 4 9 - - 0.0
15/06:10pm 41.4 38.2 -0.6 7 21.5 SSW 6 15 3 8 - - 0.0
15/06:00pm 40.5 36.7 -0.5 8 20.9 SSW 9 24 5 13 - - 0.0
15/05:50pm 40.7 37.3 -0.5 7 21.0 S 7 26 4 14 - - 0.0
15/05:40pm 40.8 37.4 -0.5 7 21.1 S 7 22 4 12 - - 0.0
15/05:30pm 41.1 37.7 -0.6 7 21.3 S 7 22 4 12 - - 0.0
15/05:20pm 41.2 37.8 -0.4 7 21.3 S 7 17 4 9 - - 0.0
15/05:10pm 41.3 37.5 -0.7 7 21.5 S 9 26 5 14 - - 0.0
15/05:00pm 41.2 37.4 -0.6 7 21.4 SSW 9 20 5 11 - - 0.0
15/04:50pm 41.9 38.7 -0.3 7 21.8 S 6 20 3 11 - - 0.0
15/04:40pm 41.6 38.2 -0.6 7 21.6 S 7 20 4 11 - - 0.0
15/04:30pm 42.2 38.4 -0.7 7 22.0 SSW 9 20 5 11 - - 0.0
15/04:20pm 42.3 38.9 -0.5 7 22.1 S 7 24 4 13 - - 0.0
15/04:10pm 42.7 38.9 -0.5 7 22.3 SE 9 22 5 12 - - 0.0
15/04:00pm 43.4 39.6 -0.5 6 22.8 S 9 20 5 11 - - 0.0
15/03:50pm 44.0 40.2 -0.5 6 23.2 SSW 9 19 5 10 - - 0.0
15/03:40pm 43.2 39.4 -0.6 6 22.7 S 9 26 5 14 - - 0.0
15/03:30pm 43.5 40.2 0.0 7 22.7 SSW 7 24 4 13 - - 0.0
15/03:20pm 42.3 39.0 -0.1 7 22.0 S 7 26 4 14 - - 0.0
15/03:10pm 41.2 37.9 -0.2 7 21.3 SSW 7 17 4 9 - - 0.0
15/03:00pm 41.2 38.0 -0.2 7 21.3 SSW 6 15 3 8 - - 0.0
15/02:50pm 41.5 38.1 -0.4 7 21.5 SSW 7 19 4 10 - - 0.0
15/02:40pm 41.9 38.5 -0.6 7 21.8 SW 7 19 4 10 - - 0.0
15/02:30pm 42.0 37.8 -0.6 7 21.9 WSW 11 30 6 16 - - 0.0
15/02:20pm 41.8 38.5 0.4 8 21.6 WSW 7 19 4 10 - - 0.0
15/02:10pm 42.4 39.2 0.7 7 21.9 WSW 7 22 4 12 - - 0.0
15/02:00pm 42.8 39.6 0.8 7 22.1 W 7 20 4 11 - - 0.0
15/01:50pm 42.1 38.5 0.7 8 21.7 SW 9 20 5 11 - - 0.0
15/01:40pm 42.0 37.7 0.7 8 21.6 WSW 13 28 7 15 - - 0.0
15/01:30pm 42.1 38.1 0.6 8 21.7 WSW 11 22 6 12 - - 0.0
15/01:20pm 41.2 37.1 -0.1 7 21.3 WSW 11 24 6 13 - - 0.0
15/01:10pm 41.3 37.2 -0.3 7 21.4 W 11 22 6 12 - - 0.0
15/01:00pm 41.1 37.5 0.9 8 21.0 W 9 17 5 9 - - 0.0
15/12:50pm 40.6 36.2 0.5 8 20.8 W 13 28 7 15 - - 0.0
15/12:40pm 40.0 36.1 1.0 9 20.3 W 11 19 6 10 - - 0.0
15/12:30pm 39.7 35.7 0.8 9 20.1 W 11 30 6 16 - - 0.0
15/12:20pm 40.0 36.4 0.9 9 20.3 W 9 19 5 10 - - 0.0
15/12:10pm 39.9 36.7 0.8 9 20.3 WSW 7 19 4 10 - - 0.0
15/12:00pm 40.3 36.9 -0.4 8 20.8 WSW 7 22 4 12 - - 0.0
15/11:50am 40.0 36.5 1.4 9 20.2 W 9 17 5 9 - - 0.0
15/11:40am 38.8 35.3 1.3 9 19.5 W 9 20 5 11 - - 0.0
15/11:30am 39.0 35.9 1.3 9 19.6 WNW 7 13 4 7 - - 0.0
15/11:20am 38.9 36.6 5.6 13 18.5 NNW 7 11 4 6 - - 0.0
15/11:10am 38.8 37.4 7.1 14 18.0 SSW 4 13 2 7 - - 0.0
15/11:00am 37.7 35.7 6.4 14 17.5 NW 6 11 3 6 - - 0.0
15/10:50am 37.0 36.1 9.1 18 16.2 NNW 4 9 2 5 - - 0.0
15/10:40am 36.1 35.3 9.5 19 15.4 WNW 4 9 2 5 - - 0.0
15/10:30am 35.0 34.3 10.2 22 14.5 NNE 4 7 2 4 - - 0.0
15/10:20am 35.0 34.4 10.4 22 14.4 NE 4 7 2 4 - - 0.0
15/10:10am 34.1 33.6 10.7 24 13.7 NW 4 15 2 8 - - 0.0
15/10:00am 33.6 32.9 11.4 25 13.1 NW 6 9 3 5 - - 0.0
15/09:50am 32.8 31.9 10.6 25 12.9 NW 6 9 3 5 - - 0.0
15/09:40am 33.1 32.8 11.6 27 12.7 N 4 9 2 5 - - 0.0
15/09:30am 32.1 31.8 11.5 28 12.1 N 4 7 2 4 - - 0.0
15/09:20am 31.8 31.8 11.1 28 12.1 E 2 4 1 2 - - 0.0
15/09:10am 31.2 31.1 10.9 28 11.8 SE 2 6 1 3 - - 0.0
15/09:00am 30.5 30.4 10.7 29 11.4 S 2 6 1 3 - - 0.0
15/08:50am 29.7 29.5 10.6 30 11.0 S 2 6 1 3 - - 0.0
15/08:40am 28.3 28.2 10.8 33 10.0 S 2 6 1 3 - - 0.0
15/08:30am 27.4 27.1 11.5 37 9.2 S 4 6 2 3 - - 0.0
15/08:20am 26.3 26.0 11.6 40 8.4 S 4 7 2 4 - - 0.0
15/08:10am 25.0 24.8 11.7 43 7.6 S 4 7 2 4 - - 0.0
15/08:00am 23.2 23.1 12.1 49 6.3 S 4 7 2 4 - - 0.0
15/07:50am 21.2 21.6 12.5 57 5.0 S 2 4 1 2 - - 0.0
15/07:40am 20.1 20.4 12.3 61 4.4 S 2 4 1 2 - - 0.0
15/07:30am 19.8 20.0 12.0 60 4.4 SSW 2 4 1 2 - - 0.0
15/07:20am 20.0 20.6 12.0 60 4.5 CALM 0 2 0 1 - - 0.0
15/07:10am 20.4 21.0 11.9 58 4.8 CALM 0 0 0 0 - - 0.0
15/07:00am 19.6 20.2 11.8 60 4.3 CALM 0 2 0 1 - - 0.0
15/06:50am 18.8 19.0 11.8 64 3.9 W 2 2 1 1 - - 0.0
15/06:40am 18.9 19.0 11.6 62 4.0 S 2 4 1 2 - - 0.0
15/06:30am 19.0 18.8 11.9 63 4.0 SSE 4 6 2 3 - - 0.0
15/06:20am 18.2 18.4 12.0 67 3.4 SSW 2 4 1 2 - - 0.0
15/06:10am 17.8 18.3 11.7 67 3.4 CALM 0 4 0 2 - - 0.0
15/06:00am 18.2 18.3 11.6 65 3.6 SW 2 4 1 2 - - 0.0
15/05:50am 18.3 18.6 12.1 67 3.5 SW 2 2 1 1 - - 0.0
15/05:30am 18.3 18.5 11.9 66 3.6 W 2 2 1 1 - - 0.0
15/05:20am 18.5 18.7 11.9 65 3.7 W 2 2 1 1 - - 0.0
15/05:10am 18.8 18.9 11.5 62 4.0 W 2 2 1 1 - - 0.0
15/05:00am 18.9 19.4 11.7 63 4.0 CALM 0 2 0 1 - - 0.0
15/04:50am 19.1 19.1 11.3 60 4.3 WSW 2 4 1 2 - - 0.0
15/04:40am 19.9 20.6 12.2 61 4.3 CALM 0 2 0 1 - - 0.0
15/04:30am 20.0 20.6 12.0 60 4.5 CALM 0 2 0 1 - - 0.0
15/04:20am 20.2 20.9 12.2 60 4.5 CALM 0 2 0 1 - - 0.0
15/04:10am 20.6 20.9 12.2 58 4.7 SSW 2 2 1 1 - - 0.0
15/04:00am 20.4 20.7 12.1 59 4.7 SSW 2 2 1 1 - - 0.0
15/03:50am 20.8 21.1 12.3 58 4.8 SSW 2 2 1 1 - - 0.0
15/03:40am 20.8 21.4 12.0 57 5.0 CALM 0 4 0 2 - - 0.0
15/03:30am 21.1 21.7 11.8 55 5.2 CALM 0 2 0 1 - - 0.0
15/03:20am 21.2 21.9 12.2 56 5.1 CALM 0 0 0 0 - - 0.0
15/03:10am 21.3 22.0 12.2 56 5.2 CALM 0 2 0 1 - - 0.0
15/03:00am 21.2 21.4 12.0 55 5.2 W 2 2 1 1 - - 0.0
15/02:50am 21.4 21.6 11.8 54 5.4 WSW 2 2 1 1 - - 0.0
15/02:40am 21.7 21.8 11.4 52 5.8 W 2 4 1 2 - - 0.0
15/02:30am 22.1 22.3 12.0 52 5.7 WSW 2 2 1 1 - - 0.0
15/02:20am 22.6 23.3 12.2 51 5.9 CALM 0 4 0 2 - - 0.0
15/02:10am 22.9 23.1 12.0 50 6.2 SW 2 4 1 2 - - 0.0
15/02:00am 23.0 23.2 11.9 49 6.3 SSW 2 4 1 2 - - 0.0
15/01:50am 23.3 23.4 11.5 47 6.7 SSW 2 4 1 2 - - 0.0
15/01:40am 24.1 24.3 11.8 46 7.0 SSW 2 6 1 3 - - 0.0
15/01:30am 24.5 24.6 11.5 44 7.4 SSW 2 4 1 2 - - 0.0
15/01:20am 24.7 24.8 11.6 44 7.5 S 2 7 1 4 - - 0.0
15/01:10am 25.0 25.1 11.6 43 7.6 SE 2 4 1 2 - - 0.0
15/01:00am 25.2 25.7 11.6 42 7.8 CALM 0 4 0 2 - - 0.0
15/12:50am 25.3 25.7 11.3 41 8.0 CALM 0 4 0 2 - - 0.0
15/12:40am 25.7 25.7 11.1 40 8.3 S 2 6 1 3 - - 0.0
15/12:30am 25.9 25.8 10.9 39 8.5 SSW 2 7 1 4 - - 0.0
15/12:20am 26.2 26.1 10.9 38 8.7 SW 2 4 1 2 - - 0.0
15/12:10am 26.7 26.6 10.8 37 9.0 SSW 2 9 1 5 - - 0.0
15/12:00am 27.7 27.1 10.3 33 9.8 S 4 11 2 6 - - 0.0
 
Date/Time
EDT
Temp
°C
App
Temp
°C
Dew
Point
°C
Rel
Hum
%
Delta-T
°C
Wind Press
QNH
hPa
Press
MSL
hPa
Rain since
9am
mm
Dir  Spd
km/h
Gust
km/h
Spd
kts
Gust
kts
14/11:50pm 28.3 27.3 10.3 32 10.2 SE 6 13 3 7 - - 0.0
14/11:40pm 28.4 27.8 10.3 32 10.3 SE 4 11 2 6 - - 0.0
14/11:30pm 28.7 28.1 10.4 32 10.4 SSE 4 9 2 5 - - 0.0
14/11:20pm 28.9 28.3 10.5 31 10.5 SE 4 13 2 7 - - 0.0
14/11:10pm 29.3 28.7 10.5 31 10.7 ESE 4 13 2 7 - - 0.0
14/11:00pm 29.4 28.9 10.7 31 10.7 E 4 9 2 5 - - 0.0
14/10:50pm 30.0 29.5 10.7 30 11.1 ESE 4 11 2 6 - - 0.0
14/10:40pm 30.3 29.4 10.6 29 11.3 E 6 15 3 8 - - 0.0
14/10:30pm 30.7 29.6 10.6 29 11.6 ESE 7 17 4 9 - - 0.0
14/10:20pm 31.0 29.9 10.5 28 11.8 ESE 7 13 4 7 - - 0.0
14/10:10pm 31.1 30.0 9.9 27 12.1 E 6 15 3 8 - - 0.0
14/10:00pm 31.5 30.0 9.1 25 12.7 ESE 7 22 4 12 - - 0.0
14/09:50pm 30.1 27.3 2.2 16 13.9 E 6 15 3 8 - - 0.0
14/09:40pm 29.4 28.4 5.4 22 12.6 CALM 0 0 0 0 - - 0.0
14/09:30pm 30.1 28.7 3.8 18 13.5 CALM 0 2 0 1 - - 0.0
14/09:20pm 30.6 29.0 2.5 16 14.2 CALM 0 2 0 1 - - 0.0
14/09:10pm 31.1 29.2 3.1 17 14.3 N 2 4 1 2 - - 0.0
14/09:00pm 32.1 30.0 1.5 14 15.3 WSW 2 2 1 1 - - 0.0
14/08:50pm 32.4 30.6 1.1 13 15.6 CALM 0 2 0 1 - - 0.0
14/08:40pm 32.8 31.1 2.1 14 15.6 CALM 0 0 0 0 - - 0.0
14/08:30pm 34.1 32.3 1.0 12 16.6 CALM 0 0 0 0 - - 0.0
14/08:20pm 35.1 33.2 0.5 11 17.4 CALM 0 0 0 0 - - 0.0
14/08:10pm 36.3 34.4 0.3 10 18.1 CALM 0 4 0 2 - - 0.0
14/08:00pm 36.9 34.9 0.2 10 18.5 CALM 0 6 0 3 - - 0.0
14/07:50pm 38.0 35.3 0.0 9 19.2 WNW 4 7 2 4 - - 0.0
14/07:40pm 38.4 35.6 -0.7 8 19.6 W 4 9 2 5 - - 0.0
14/07:30pm 38.8 35.5 -1.2 8 20.0 WNW 6 11 3 6 - - 0.0
14/07:20pm 39.4 36.7 0.6 9 20.0 N 4 7 2 4 - - 0.0
14/07:10pm 40.3 37.6 0.5 8 20.6 WNW 4 9 2 5 - - 0.0
14/07:00pm 40.8 38.2 1.2 8 20.8 WSW 4 7 2 4 - - 0.0
14/06:50pm 40.8 38.2 0.9 8 20.8 WSW 4 13 2 7 - - 0.0
14/06:40pm 40.5 37.5 0.7 8 20.7 W 6 17 3 9 - - 0.0
14/06:30pm 40.2 37.4 1.8 9 20.2 W 6 17 3 9 - - 0.0
14/06:20pm 40.8 38.7 1.5 9 20.7 SW 2 6 1 3 - - 0.0
14/06:10pm 40.3 37.4 1.4 9 20.4 SW 6 11 3 6 - - 0.0
14/06:00pm 40.7 37.8 1.7 9 20.6 WSW 6 11 3 6 - - 0.0
14/05:50pm 40.3 37.3 2.3 9 20.2 W 7 17 4 9 - - 0.0
14/05:40pm 40.6 37.6 2.3 9 20.4 W 7 19 4 10 - - 0.0
14/05:30pm 40.5 37.6 2.7 10 20.2 W 7 20 4 11 - - 0.0
14/05:20pm 41.1 38.2 2.7 9 20.6 WSW 7 20 4 11 - - 0.0
14/05:10pm 40.4 37.6 3.0 10 20.1 W 7 19 4 10 - - 0.0
14/05:00pm 40.2 37.0 3.2 10 19.9 WSW 9 24 5 13 - - 0.0
14/04:50pm 41.4 38.8 3.1 9 20.7 SW 6 15 3 8 - - 0.0
14/04:40pm 40.5 37.4 3.4 10 20.1 WSW 9 24 5 13 - - 0.0
14/04:30pm 40.2 37.0 3.3 10 19.9 W 9 24 5 13 - - 0.0
14/04:20pm 40.5 37.8 3.5 10 20.0 WSW 7 19 4 10 - - 0.0
14/04:10pm 39.7 36.6 3.4 10 19.5 WSW 9 24 5 13 - - 0.0
14/04:00pm 40.6 37.5 3.5 10 20.1 SW 9 17 5 9 - - 0.0
14/03:50pm 40.9 37.9 4.2 10 20.1 WSW 9 22 5 12 - - 0.0
14/03:40pm 40.5 37.9 4.2 11 19.9 W 7 17 4 9 - - 0.0
14/03:30pm 39.7 36.7 4.3 11 19.3 W 9 19 5 10 - - 0.0
14/03:20pm 39.9 37.0 4.6 11 19.4 WSW 9 20 5 11 - - 0.0
14/03:10pm 40.0 37.8 5.1 12 19.3 WSW 6 15 3 8 - - 0.0
14/03:00pm 39.7 36.9 5.1 12 19.1 W 9 28 5 15 - - 0.0
14/02:50pm 39.6 36.7 4.8 12 19.1 W 9 24 5 13 - - 0.0
14/02:40pm 39.0 36.2 5.0 12 18.7 W 9 20 5 11 - - 0.0
14/02:30pm 39.2 36.7 4.6 12 18.9 W 7 17 4 9 - - 0.0
14/02:20pm 39.3 36.8 4.7 12 19.0 SSW 7 19 4 10 - - 0.0
14/02:10pm 39.2 36.8 5.1 12 18.8 WSW 7 19 4 10 - - 0.0
14/02:00pm 38.6 35.9 3.8 11 18.7 W 7 19 4 10 - - 0.0
14/01:50pm 38.5 36.4 5.7 13 18.2 ENE 6 17 3 9 - - 0.0
14/01:40pm 38.5 36.3 6.2 14 18.0 NW 7 20 4 11 - - 0.0
14/01:30pm 38.8 37.3 6.7 14 18.1 N 4 11 2 6 - - 0.0
14/01:20pm 37.2 34.9 7.5 16 16.8 N 9 17 5 9 - - 0.0
14/01:10pm 36.4 34.8 8.7 18 15.9 NW 7 17 4 9 - - 0.0
14/01:00pm 37.4 36.0 8.8 17 16.5 NW 6 15 3 8 - - 0.0
14/12:50pm 36.1 34.0 8.3 18 15.8 NW 9 19 5 10 - - 0.0
14/12:40pm 36.9 35.3 8.9 18 16.2 NNW 7 15 4 8 - - 0.0
14/12:30pm 35.9 34.5 9.0 19 15.5 NNW 6 13 3 7 - - 0.0
14/12:20pm 35.7 34.1 8.2 18 15.6 NNW 6 15 3 8 - - 0.0
14/12:10pm 35.2 34.0 9.6 21 14.8 NNW 6 11 3 6 - - 0.0
14/12:00pm 35.4 34.5 10.8 22 14.5 SSW 6 9 3 5 - - 0.0
14/11:50am 35.3 34.8 10.9 22 14.4 NE 4 11 2 6 - - 0.0
14/11:40am 33.9 33.2 11.9 26 13.1 NW 7 13 4 7 - - 0.0
14/11:30am 33.5 33.0 12.2 27 12.7 ENE 6 11 3 6 - - 0.0
14/11:20am 33.1 32.9 13.0 29 12.1 ENE 6 11 3 6 - - 0.0
14/11:10am 33.5 33.2 12.6 28 12.6 NE 6 9 3 5 - - 0.0
14/11:00am 32.8 32.8 13.7 31 11.6 E 6 11 3 6 - - 0.0
14/10:50am 32.6 32.5 13.4 31 11.6 NNE 6 13 3 7 - - 0.0
14/10:40am 31.2 31.1 13.3 33 10.8 NW 6 13 3 7 - - 0.0
14/10:30am 31.2 31.2 13.6 34 10.7 NE 6 11 3 6 - - 0.0
14/10:20am 30.8 30.8 13.5 34 10.4 NNE 6 15 3 8 - - 0.0
14/10:10am 30.5 30.5 13.7 35 10.2 NNW 6 11 3 6 - - 0.0
14/10:00am 30.0 30.1 14.0 37 9.7 NNE 6 11 3 6 - - 0.0
14/09:50am 29.3 29.4 13.9 39 9.3 NNE 6 15 3 8 - - 0.0
14/09:40am 28.4 28.5 13.9 41 8.7 NE 6 13 3 7 - - 0.0
14/09:30am 28.1 27.9 13.7 41 8.6 NNE 7 15 4 8 - - 0.0
14/09:20am 27.7 27.5 13.7 42 8.4 NE 7 13 4 7 - - 0.0
14/09:10am 26.9 26.7 13.7 44 7.9 NE 7 13 4 7 - - 0.0
14/09:00am 26.0 25.8 13.7 46 7.3 NE 7 13 4 7 - - 0.0
14/08:50am 25.8 25.2 13.6 47 7.2 NNE 9 17 5 9 - - 0.0
14/08:40am 25.6 25.4 13.5 47 7.1 NNE 7 11 4 6 - - 0.0
14/08:30am 25.7 25.7 13.5 46 7.2 ENE 6 9 3 5 - - 0.0
14/08:20am 24.7 24.5 13.1 48 6.8 ENE 6 11 3 6 - - 0.0
14/08:10am 24.1 23.9 13.1 50 6.4 ENE 6 11 3 6 - - 0.0
14/08:00am 23.3 23.1 12.9 52 6.0 ENE 6 13 3 7 - - 0.0
14/07:50am 21.4 22.0 13.0 58 4.8 E 2 7 1 4 - - 0.0
14/07:40am 19.7 20.5 12.5 63 4.1 CALM 0 4 0 2 - - 0.0
14/07:30am 18.7 19.4 12.1 65 3.7 CALM 0 4 0 2 - - 0.0
14/07:20am 18.0 18.2 11.9 67 3.4 S 2 4 1 2 - - 0.0
14/07:10am 17.5 17.6 11.4 67 3.3 S 2 4 1 2 - - 0.0
14/07:00am 17.1 17.1 11.3 68 3.2 SSW 2 4 1 2 - - 0.0
14/06:50am 16.5 16.9 11.4 72 2.8 CALM 0 2 0 1 - - 0.0
14/06:40am 16.0 16.4 11.1 72 2.6 CALM 0 2 0 1 - - 0.0
14/06:30am 16.0 16.3 11.0 72 2.7 CALM 0 2 0 1 - - 0.0
14/06:20am 16.1 16.5 11.1 72 2.7 CALM 0 2 0 1 - - 0.0
14/06:10am 16.3 16.7 11.3 72 2.7 CALM 0 2 0 1 - - 0.0
14/06:00am 16.0 16.5 11.6 75 2.4 CALM 0 2 0 1 - - 0.0
14/05:50am 16.1 16.5 11.2 72 2.7 CALM 0 2 0 1 - - 0.0
14/05:40am 16.3 16.7 11.3 72 2.7 CALM 0 2 0 1 - - 0.0
14/05:30am 16.5 16.9 11.2 71 2.9 CALM 0 0 0 0 - - 0.0
14/05:20am 16.9 17.3 11.4 70 3.0 CALM 0 0 0 0 - - 0.0
14/05:10am 16.8 17.3 11.5 71 2.9 CALM 0 0 0 0 - - 0.0
14/05:00am 16.5 16.9 11.3 71 2.8 CALM 0 0 0 0 - - 0.0
14/04:50am 16.5 16.4 10.7 68 3.1 W 2 4 1 2 - - 0.0
14/04:40am 17.0 17.5 11.5 70 3.0 CALM 0 2 0 1 - - 0.0
14/04:30am 17.1 17.5 11.4 69 3.1 CALM 0 2 0 1 - - 0.0
14/04:20am 17.4 17.5 11.4 68 3.3 SSW 2 4 1 2 - - 0.0
14/04:10am 17.6 18.0 11.3 66 3.4 CALM 0 2 0 1 - - 0.0
14/04:00am 17.8 17.9 11.6 67 3.4 SSW 2 2 1 1 - - 0.0
14/03:50am 17.7 18.1 11.3 66 3.5 CALM 0 2 0 1 - - 0.0
14/03:40am 18.1 18.1 11.2 64 3.8 S 2 4 1 2 - - 0.0
14/03:30am 18.5 19.0 11.5 63 3.9 CALM 0 0 0 0 - - 0.0
14/03:20am 18.7 19.2 11.6 63 3.9 CALM 0 0 0 0 - - 0.0
14/03:10am 18.8 19.3 11.6 63 4.0 CALM 0 0 0 0 - - 0.0
14/03:00am 18.7 19.1 11.4 62 4.0 CALM 0 0 0 0 - - 0.0
14/02:50am 18.8 19.3 11.5 62 4.0 CALM 0 0 0 0 - - 0.0
14/02:40am 19.1 19.5 11.4 61 4.3 CALM 0 0 0 0 - - 0.0
14/02:30am 19.6 20.1 11.7 60 4.4 CALM 0 0 0 0 - - 0.0
14/02:20am 19.9 20.4 11.7 59 4.6 CALM 0 0 0 0 - - 0.0
14/02:10am 20.2 20.7 11.6 57 4.8 CALM 0 2 0 1 - - 0.0
14/02:00am 20.4 21.0 11.8 57 4.8 CALM 0 2 0 1 - - 0.0
14/01:50am 20.5 20.7 11.7 57 4.9 S 2 4 1 2 - - 0.0
14/01:40am 20.8 20.9 11.5 55 5.2 S 2 4 1 2 - - 0.0
14/01:30am 21.0 21.1 11.5 54 5.3 SSW 2 4 1 2 - - 0.0
14/01:20am 21.6 21.6 11.2 51 5.8 SSW 2 6 1 3 - - 0.0
14/01:10am 22.0 22.1 11.5 51 5.9 SSE 2 6 1 3 - - 0.0
14/01:00am 22.2 22.3 11.6 51 6.0 SE 2 4 1 2 - - 0.0
14/12:50am 22.2 22.3 11.5 50 6.0 SE 2 4 1 2 - - 0.0
14/12:40am 22.4 22.5 11.5 50 6.1 SSE 2 4 1 2 - - 0.0
14/12:30am 22.7 22.8 11.4 49 6.4 ESE 2 6 1 3 - - 0.0
14/12:20am 23.1 22.8 11.4 47 6.6 SE 4 11 2 6 - - 0.0
14/12:10am 22.9 22.9 11.1 47 6.6 SE 2 9 1 5 - - 0.0
14/12:00am 23.4 23.4 11.2 46 6.9 SSE 2 9 1 5 - - 0.0
 
Date/Time
EDT
Temp
°C
App
Temp
°C
Dew
Point
°C
Rel
Hum
%
Delta-T
°C
Wind Press
QNH
hPa
Press
MSL
hPa
Rain since
9am
mm
Dir  Spd
km/h
Gust
km/h
Spd
kts
Gust
kts
13/11:50pm 23.7 23.7 11.1 45 7.1 SSE 2 7 1 4 - - 0.0
13/11:40pm 23.7 23.7 11.1 45 7.1 SSE 2 9 1 5 - - 0.0
13/11:30pm 24.1 23.6 10.9 43 7.4 SSE 4 9 2 5 - - 0.0
13/11:20pm 24.4 23.9 10.8 42 7.6 SSE 4 9 2 5 - - 0.0
13/11:10pm 24.4 23.9 10.8 42 7.6 SE 4 7 2 4 - - 0.0
13/11:00pm 24.5 23.9 10.4 41 7.9 S 4 9 2 5 - - 0.0
13/10:50pm 25.0 24.4 10.5 40 8.1 SSE 4 7 2 4 - - 0.0
13/10:40pm 25.0 24.4 10.4 39 8.2 S 4 7 2 4 - - 0.0
13/10:30pm 25.2 24.9 10.2 38 8.4 SSE 2 6 1 3 - - 0.0
13/10:20pm 25.8 25.2 10.3 37 8.7 SE 4 11 2 6 - - 0.0
13/10:10pm 26.0 25.4 10.4 37 8.8 SE 4 11 2 6 - - 0.0
13/10:00pm 26.4 25.5 10.6 37 8.9 SE 6 13 3 7 - - 0.0
13/09:50pm 26.6 26.1 10.7 37 9.0 SSE 4 13 2 7 - - 0.0
13/09:40pm 27.2 26.2 10.2 34 9.6 SSE 6 11 3 6 - - 0.0
13/09:30pm 27.6 26.7 10.5 34 9.7 SE 6 15 3 8 - - 0.0
13/09:20pm 27.9 27.3 10.4 33 9.9 SE 4 13 2 7 - - 0.0
13/09:10pm 28.1 27.5 10.4 33 10.0 SE 4 13 2 7 - - 0.0
13/09:00pm 28.7 27.7 10.4 32 10.4 SE 6 17 3 9 - - 0.0
13/08:50pm 29.0 28.0 10.3 31 10.6 SE 6 13 3 7 - - 0.0
13/08:40pm 29.4 28.4 10.3 30 10.9 ESE 6 17 3 9 - - 0.0
13/08:30pm 29.7 28.7 10.2 29 11.1 ESE 6 17 3 9 - - 0.0
13/08:20pm 30.2 29.1 10.1 28 11.5 ESE 6 13 3 7 - - 0.0
13/08:10pm 30.6 28.9 10.0 28 11.8 ESE 9 22 5 12 - - 0.0
13/08:00pm 30.9 29.6 10.0 27 11.9 ESE 7 17 4 9 - - 0.0
13/07:50pm 31.2 29.9 9.8 26 12.2 ESE 7 15 4 8 - - 0.0
13/07:40pm 31.4 29.7 9.8 26 12.3 ESE 9 24 5 13 - - 0.0
13/07:30pm 31.7 29.9 9.6 25 12.6 ESE 9 26 5 14 - - 0.0
13/07:20pm 32.1 30.3 9.5 24 12.9 SE 9 22 5 12 - - 0.0
13/07:10pm 33.2 31.8 9.7 23 13.5 ESE 7 19 4 10 - - 0.0
13/07:00pm 33.2 31.4 9.4 23 13.6 E 9 19 5 10 - - 0.0
13/06:50pm 33.5 31.7 9.4 22 13.8 E 9 24 5 13 - - 0.0
13/06:40pm 33.9 32.1 9.5 22 14.0 E 9 24 5 13 - - 0.0
13/06:30pm 34.1 32.3 9.3 22 14.2 ESE 9 22 5 12 - - 0.0
13/06:20pm 33.8 31.6 9.2 22 14.1 SE 11 20 6 11 - - 0.0
13/06:10pm 34.4 32.5 9.2 21 14.4 ESE 9 22 5 12 - - 0.0
13/06:00pm 34.6 32.7 8.9 20 14.7 ESE 9 20 5 11 - - 0.0
13/05:50pm 34.7 32.7 8.7 20 14.8 SE 9 20 5 11 - - 0.0
13/05:40pm 34.9 33.3 8.7 20 14.9 SE 7 20 4 11 - - 0.0
13/05:30pm 34.6 32.6 8.7 20 14.7 ESE 9 24 5 13 - - 0.0
13/05:20pm 34.7 32.8 8.9 20 14.7 ESE 9 19 5 10 - - 0.0
13/05:10pm 35.1 33.1 8.7 20 15.1 E 9 17 5 9 - - 0.0
13/05:00pm 34.9 32.9 8.7 20 14.9 ESE 9 20 5 11 - - 0.0
13/04:50pm 35.3 32.9 8.5 19 15.3 E 11 22 6 12 - - 0.0
13/04:40pm 35.2 33.1 8.4 19 15.2 ESE 9 20 5 11 - - 0.0
13/04:30pm 35.6 33.5 8.4 19 15.5 ESE 9 26 5 14 - - 0.0
13/04:20pm 34.9 32.8 8.2 19 15.1 ESE 9 32 5 17 - - 0.0
13/04:10pm 34.5 32.4 8.4 20 14.8 E 9 28 5 15 - - 0.0
13/04:00pm 34.8 32.3 8.1 19 15.1 ESE 11 22 6 12 - - 0.0
13/03:50pm 35.5 33.7 8.0 18 15.6 SE 7 19 4 10 - - 0.0
13/03:40pm 34.6 32.5 8.3 20 14.9 SE 9 22 5 12 - - 0.0
13/03:30pm 35.1 33.0 8.2 19 15.2 E 9 17 5 9 - - 0.0
13/03:20pm 35.5 33.4 8.1 18 15.5 ESE 9 20 5 11 - - 0.0
13/03:10pm 34.8 32.3 8.4 19 15.0 ESE 11 28 6 15 - - 0.0
13/03:00pm 35.5 33.4 8.2 18 15.5 SE 9 22 5 12 - - 0.0
13/02:50pm 34.8 32.3 8.3 19 15.0 SE 11 20 6 11 - - 0.0
13/02:40pm 35.0 33.3 8.3 19 15.1 SE 7 22 4 12 - - 0.0
13/02:30pm 34.7 32.9 7.8 19 15.1 E 7 17 4 9 - - 0.0
13/02:20pm 34.9 33.1 8.0 19 15.2 ESE 7 17 4 9 - - 0.0
13/02:10pm 34.0 31.9 8.2 20 14.5 E 9 20 5 11 - - 0.0
13/02:00pm 33.8 31.7 8.1 20 14.4 E 9 20 5 11 - - 0.0
13/01:50pm 33.4 31.3 8.1 21 14.2 ENE 9 17 5 9 - - 0.0
13/01:40pm 33.5 31.3 8.0 20 14.3 E 9 24 5 13 - - 0.0
13/01:30pm 33.0 30.8 8.0 21 14.0 ENE 9 20 5 11 - - 0.0
13/01:20pm 32.6 30.4 7.9 21 13.8 E 9 20 5 11 - - 0.0
13/01:10pm 32.8 30.6 7.8 21 13.9 E 9 22 5 12 - - 0.0
13/01:00pm 32.3 29.6 7.5 21 13.7 ESE 11 22 6 12 - - 0.0
13/12:50pm 31.9 29.7 7.8 22 13.4 E 9 20 5 11 - - 0.0
13/12:40pm 31.9 29.2 7.5 22 13.5 E 11 24 6 13 - - 0.0
13/12:30pm 31.6 29.7 7.4 22 13.3 E 7 15 4 8 - - 0.0
13/12:20pm 31.0 28.7 7.4 23 12.9 E 9 28 5 15 - - 0.0
13/12:10pm 31.1 28.7 7.1 22 13.1 ESE 9 26 5 14 - - 0.0
13/12:00pm 30.5 28.0 6.5 22 12.9 ESE 9 24 5 13 - - 0.0
13/11:50am 30.4 27.9 6.5 22 12.9 E 9 22 5 12 - - 0.0
13/11:40am 30.2 27.6 6.3 22 12.8 ESE 9 20 5 11 - - 0.0
13/11:30am 29.7 27.1 6.1 22 12.6 ESE 9 20 5 11 - - 0.0
13/11:20am 30.0 27.7 5.7 21 12.9 E 7 19 4 10 - - 0.0
13/11:10am 28.5 25.8 5.5 23 12.0 ESE 9 22 5 12 - - 0.0
13/11:00am 27.8 24.7 5.4 24 11.7 ESE 11 30 6 16 - - 0.0
13/10:50am 27.3 23.7 5.0 24 11.5 ESE 13 28 7 15 - - 0.0

Other Formats:

Comma delimited format used in spreadsheet applications
http://www.bom.gov.au/fwo/IDV60801/IDV60801.99053.axf

JavaScript Object Notation format (JSON) in row-major order
http://www.bom.gov.au/fwo/IDV60801/IDV60801.99053.json